Time;durP1;ratioP1;P1;durP2;ratioP2;P2;SDS_P1;SDS_P2;PMS_P1;PMS_P2;Temp;Humidity;BMP_temperature;BMP_pressure;BME280_temperature;BME280_humidity;BME280_pressure;Samples;Min_cycle;Max_cycle;Signal;HPM_P1;HPM_P2
2022/05/30 00:04:30;;;;;;;;;;;;;;;5.99;100.00;95063.69;10494733;28;2321;-73
2022/05/30 00:09:34;;;;;;;;;;;;;;;5.87;100.00;95061.19;10509602;28;2124;-74
2022/05/30 00:14:38;;;;;;;;;;;;;;;5.85;100.00;95062.50;10506891;28;2274;-74
2022/05/30 00:19:42;;;;;;;;;;;;;;;5.70;100.00;95060.59;10507970;28;2167;-73
2022/05/30 00:24:45;;;;;;;;;;;;;;;5.60;100.00;95071.22;10515532;28;2336;-76
2022/05/30 00:29:49;;;;;;;;;;;;;;;5.50;100.00;95068.50;10498334;28;2155;-75
2022/05/30 00:34:53;;;;;;;;;;;;;;;5.53;100.00;95059.97;10506589;28;2147;-74
2022/05/30 00:39:57;;;;;;;;;;;;;;;5.51;100.00;95054.09;10491576;28;2101;-74
2022/05/30 00:45:00;;;;;;;;;;;;;;;5.34;100.00;95046.28;10479208;28;2246;-74
2022/05/30 00:50:04;;;;;;;;;;;;;;;5.32;100.00;95049.19;10511771;28;2191;-74
2022/05/30 00:55:07;;;;;;;;;;;;;;;5.26;100.00;95044.91;10485347;28;2105;-74
2022/05/30 01:00:10;;;;;;;;;;;;;;;5.26;100.00;95044.91;10484648;28;2481;-74
2022/05/30 01:10:37;;;;;;;;;;;;;;;5.16;100.00;95034.19;10504387;28;2305;-75
2022/05/30 01:15:41;;;;;;;;;;;;;;;5.38;100.00;95032.19;10505249;28;2277;-76
2022/05/30 01:20:45;;;;;;;;;;;;;;;5.47;100.00;95024.50;10500490;28;2155;-74
2022/05/30 01:25:50;;;;;;;;;;;;;;;5.46;100.00;95022.88;10502974;28;2337;-73
2022/05/30 01:30:54;;;;;;;;;;;;;;;5.39;100.00;95009.78;10504629;28;2421;-73
2022/05/30 01:35:58;;;;;;;;;;;;;;;5.34;100.00;95015.13;10506173;28;2298;-73
2022/05/30 01:41:03;;;;;;;;;;;;;;;5.23;100.00;95016.13;10504267;28;2370;-74
2022/05/30 01:46:06;;;;;;;;;;;;;;;5.17;100.00;95008.34;10512403;28;2307;-75
2022/05/30 01:51:11;;;;;;;;;;;;;;;5.26;100.00;95017.44;10512100;28;2353;-74
2022/05/30 01:56:15;;;;;;;;;;;;;;;5.26;100.00;95004.13;10506515;28;2333;-74
2022/05/30 02:01:20;;;;;;;;;;;;;;;5.17;100.00;94987.84;10477625;28;2279;-74
2022/05/30 02:06:24;;;;;;;;;;;;;;;5.09;100.00;94996.31;10495249;28;2228;-74
2022/05/30 02:11:27;;;;;;;;;;;;;;;5.10;100.00;94985.41;10479204;28;2338;-73
2022/05/30 02:21:52;;;;;;;;;;;;;;;5.33;100.00;94981.50;10499660;28;2426;-73
2022/05/30 02:26:55;;;;;;;;;;;;;;;5.29;100.00;94991.09;10496904;28;2470;-74
2022/05/30 02:31:59;;;;;;;;;;;;;;;5.07;100.00;94991.22;10502390;28;2283;-74
2022/05/30 02:37:03;;;;;;;;;;;;;;;5.09;100.00;94994.47;10511490;28;2325;-74
2022/05/30 02:42:07;;;;;;;;;;;;;;;5.04;100.00;94990.97;10502601;28;2330;-75
2022/05/30 02:47:10;;;;;;;;;;;;;;;5.02;100.00;94990.41;10484353;28;2289;-75
2022/05/30 02:52:14;;;;;;;;;;;;;;;5.00;100.00;94993.31;10495841;28;2291;-75
2022/05/30 02:57:18;;;;;;;;;;;;;;;5.14;100.00;94994.47;10495318;28;2358;-74
2022/05/30 03:02:22;;;;;;;;;;;;;;;5.32;100.00;94989.78;10479091;28;2307;-75
2022/05/30 03:07:25;;;;;;;;;;;;;;;5.33;100.00;94994.84;10491352;28;2406;-74
2022/05/30 03:12:29;;;;;;;;;;;;;;;5.34;100.00;94999.13;10481583;28;2303;-74
2022/05/30 03:17:33;;;;;;;;;;;;;;;5.46;100.00;95000.75;10491591;28;2385;-74
2022/05/30 03:22:39;;;;;;;;;;;;;;;5.49;100.00;94994.91;10493847;28;2284;-74
2022/05/30 03:27:43;;;;;;;;;;;;;;;5.43;100.00;94992.22;10502631;28;2763;-74
2022/05/30 03:32:47;;;;;;;;;;;;;;;5.60;100.00;94989.38;10486329;28;2367;-74
2022/05/30 03:37:51;;;;;;;;;;;;;;;5.64;100.00;94987.78;10489036;28;2352;-73
2022/05/30 03:42:56;;;;;;;;;;;;;;;5.60;100.00;94992.03;10488545;28;2422;-74
2022/05/30 03:48:00;;;;;;;;;;;;;;;5.93;100.00;94990.84;10512016;28;2457;-74
2022/05/30 03:53:06;;;;;;;;;;;;;;;6.35;100.00;94992.47;10508380;28;2449;-74
2022/05/30 03:58:10;;;;;;;;;;;;;;;6.49;100.00;94995.47;10510685;28;2830;-74
2022/05/30 04:03:14;;;;;;;;;;;;;;;6.82;100.00;95004.78;10485836;28;2315;-75
2022/05/30 04:08:17;;;;;;;;;;;;;;;7.00;100.00;95003.44;10511858;28;2322;-71
2022/05/30 04:13:21;;;;;;;;;;;;;;;7.13;100.00;95002.09;10515442;28;1630;-73
2022/05/30 04:18:25;;;;;;;;;;;;;;;7.28;100.00;94999.38;10524430;28;2342;-73
2022/05/30 04:23:28;;;;;;;;;;;;;;;7.31;100.00;94994.25;10481247;28;2431;-74
2022/05/30 04:28:32;;;;;;;;;;;;;;;7.77;100.00;95006.69;10512514;28;2370;-73
2022/05/30 04:33:35;;;;;;;;;;;;;;;7.39;100.00;95022.34;10509979;28;2405;-74
2022/05/30 04:38:40;;;;;;;;;;;;;;;7.76;100.00;95026.47;10501051;28;2330;-74
2022/05/30 04:43:43;;;;;;;;;;;;;;;8.10;100.00;95031.97;10500098;28;2125;-75
2022/05/30 04:48:47;;;;;;;;;;;;;;;8.68;100.00;95024.13;10515092;28;2175;-74
2022/05/30 04:53:51;;;;;;;;;;;;;;;8.75;97.16;95015.75;10508951;28;2345;-75
2022/05/30 04:58:55;;;;;;;;;;;;;;;8.89;97.26;95020.19;10499759;28;2327;-74
2022/05/30 05:04:00;;;;;;;;;;;;;;;8.93;96.56;95017.75;10504092;28;2303;-74
2022/05/30 05:09:05;;;;;;;;;;;;;;;8.92;97.10;95016.16;10503478;28;2322;-74
2022/05/30 05:14:09;;;;;;;;;;;;;;;9.23;95.04;95019.38;10482815;28;2205;-74
2022/05/30 05:19:12;;;;;;;;;;;;;;;9.17;93.44;95018.63;10506597;28;2310;-74
2022/05/30 05:24:16;;;;;;;;;;;;;;;9.58;92.39;95028.94;10499513;28;2374;-74
2022/05/30 05:29:20;;;;;;;;;;;;;;;10.32;87.51;95015.19;10498327;28;2366;-75
2022/05/30 05:34:24;;;;;;;;;;;;;;;10.20;83.42;95018.25;10505268;28;2026;-75
2022/05/30 05:39:27;;;;;;;;;;;;;;;9.93;86.93;95026.94;10506585;28;2365;-74
2022/05/30 05:44:31;;;;;;;;;;;;;;;10.38;83.74;95020.19;10504313;28;2381;-75
2022/05/30 05:49:35;;;;;;;;;;;;;;;10.75;82.39;95019.38;10510464;28;2437;-75
2022/05/30 05:54:39;;;;;;;;;;;;;;;11.04;80.43;95021.06;10506836;28;2365;-74
2022/05/30 05:59:43;;;;;;;;;;;;;;;10.96;78.48;95011.78;10506510;28;2303;-75
2022/05/30 06:04:47;;;;;;;;;;;;;;;11.21;78.94;94997.09;10497332;28;2354;-76
2022/05/30 06:09:51;;;;;;;;;;;;;;;11.54;79.17;95002.41;10502629;28;2200;-77
2022/05/30 06:14:54;;;;;;;;;;;;;;;10.98;78.14;94990.75;10486392;28;2163;-75
2022/05/30 06:19:58;;;;;;;;;;;;;;;11.76;79.06;95002.50;10510900;28;2315;-75
2022/05/30 06:25:02;;;;;;;;;;;;;;;11.84;74.68;94991.09;10501364;28;2258;-75
2022/05/30 06:30:05;;;;;;;;;;;;;;;12.06;73.06;95003.03;10501979;28;2247;-73
2022/05/30 06:35:09;;;;;;;;;;;;;;;12.51;74.00;95003.13;10491498;28;2286;-74
2022/05/30 06:40:13;;;;;;;;;;;;;;;12.40;72.23;95013.34;10505123;28;2199;-75
2022/05/30 06:45:17;;;;;;;;;;;;;;;12.40;71.93;95007.94;10482009;28;2297;-73
2022/05/30 06:50:21;;;;;;;;;;;;;;;12.91;70.47;95007.56;10487446;28;2243;-73
2022/05/30 06:55:24;;;;;;;;;;;;;;;12.05;69.40;95014.91;10493797;28;2220;-74
2022/05/30 07:00:29;;;;;;;;;;;;;;;12.14;70.35;95018.47;10486860;28;2200;-73
2022/05/30 07:05:34;;;;;;;;;;;;;;;12.05;69.83;95017.59;10495200;28;2329;-73
2022/05/30 07:10:38;;;;;;;;;;;;;;;12.28;71.93;95021.97;10492773;28;2247;-74
2022/05/30 07:15:42;;;;;;;;;;;;;;;12.05;71.22;95013.00;10496177;28;2340;-72
2022/05/30 07:20:45;;;;;;;;;;;;;;;12.39;70.62;95017.94;10510634;28;2065;-74
2022/05/30 07:25:49;;;;;;;;;;;;;;;13.02;70.11;95018.13;10493253;28;2285;-74
2022/05/30 07:30:53;;;;;;;;;;;;;;;13.05;67.96;95022.91;10509108;28;2243;-74
2022/05/30 07:35:56;;;;;;;;;;;;;;;12.76;70.30;95026.03;10505050;28;2323;-75
2022/05/30 07:41:00;;;;;;;;;;;;;;;12.50;71.99;95028.50;10508275;28;2184;-75
2022/05/30 07:46:04;;;;;;;;;;;;;;;12.23;68.96;95029.34;10509544;28;2179;-72
2022/05/30 07:51:09;;;;;;;;;;;;;;;12.16;68.86;95035.94;10508058;28;2249;-74
2022/05/30 07:56:13;;;;;;;;;;;;;;;12.42;66.65;95040.81;10507611;28;2136;-73
2022/05/30 08:01:17;;;;;;;;;;;;;;;13.04;65.63;95041.00;10488896;28;2368;-73
2022/05/30 08:06:21;;;;;;;;;;;;;;;13.82;63.17;95030.66;10497667;28;2199;-73
2022/05/30 08:11:25;;;;;;;;;;;;;;;14.74;59.30;95034.25;10524365;28;2330;-73
2022/05/30 08:16:28;;;;;;;;;;;;;;;14.75;56.86;95040.44;10504363;28;2200;-72
2022/05/30 08:21:53;;;;;;;;;;;;;;;14.45;59.36;95037.53;10508388;28;2187;-74
2022/05/30 08:26:57;;;;;;;;;;;;;;;14.88;57.36;95036.78;10489154;28;2302;-74
2022/05/30 08:32:00;;;;;;;;;;;;;;;14.39;58.61;95048.81;10492180;28;2582;-72
2022/05/30 08:37:04;;;;;;;;;;;;;;;13.81;60.59;95049.91;10507566;28;2265;-73
2022/05/30 08:42:08;;;;;;;;;;;;;;;13.12;62.72;95050.25;10488732;28;2266;-74
2022/05/30 08:47:11;;;;;;;;;;;;;;;13.15;61.70;95055.03;10505705;28;2279;-74
2022/05/30 08:52:16;;;;;;;;;;;;;;;13.43;60.81;95053.84;10512907;28;2233;-73
2022/05/30 08:57:20;;;;;;;;;;;;;;;13.37;61.33;95057.75;10488316;28;2267;-72
2022/05/30 09:02:24;;;;;;;;;;;;;;;14.44;56.18;95054.88;10524951;28;2120;-72
2022/05/30 09:07:33;;;;;;;;;;;;;;;14.95;54.23;95064.19;10503489;28;2203;-74
2022/05/30 09:12:38;;;;;;;;;;;;;;;14.44;55.75;95057.56;10492379;28;2244;-74
2022/05/30 09:17:41;;;;;;;;;;;;;;;14.47;56.21;95054.25;10503548;28;2119;-74
2022/05/30 09:22:45;;;;;;;;;;;;;;;14.62;55.87;95055.69;10508252;28;2314;-73
2022/05/30 09:27:49;;;;;;;;;;;;;;;14.80;54.67;95051.91;10494211;28;2395;-73
2022/05/30 09:32:53;;;;;;;;;;;;;;;15.91;52.92;95054.00;10498660;28;2679;-73
2022/05/30 09:37:56;;;;;;;;;;;;;;;16.13;50.41;95050.25;10500849;28;2362;-74
2022/05/30 09:43:02;;;;;;;;;;;;;;;15.49;50.43;95053.78;10491326;28;2620;-74
2022/05/30 09:48:05;;;;;;;;;;;;;;;15.60;49.81;95057.75;10502437;28;2465;-74
2022/05/30 09:53:09;;;;;;;;;;;;;;;15.64;51.23;95047.84;10510414;28;2204;-74
2022/05/30 09:58:12;;;;;;;;;;;;;;;15.17;50.58;95046.97;10504737;28;2611;-74
2022/05/30 10:03:16;;;;;;;;;;;;;;;16.04;49.11;95050.28;10504276;28;2341;-74
2022/05/30 10:08:20;;;;;;;;;;;;;;;16.13;46.00;95051.03;10502472;28;2362;-73
2022/05/30 10:13:24;;;;;;;;;;;;;;;15.30;45.54;95056.03;10480652;28;2367;-73
2022/05/30 10:18:27;;;;;;;;;;;;;;;14.63;46.61;95056.50;10495035;28;2243;-74
2022/05/30 10:28:59;;;;;;;;;;;;;;;15.62;46.75;95047.41;10504776;28;2177;-75
2022/05/30 10:34:03;;;;;;;;;;;;;;;15.77;45.09;95051.47;10507492;28;2188;-74
2022/05/30 10:39:07;;;;;;;;;;;;;;;17.82;40.49;95029.78;10506337;28;2247;-73
2022/05/30 10:44:10;;;;;;;;;;;17.80;99.90;;;15.66;43.50;95042.94;10503016;28;2040;-73
2022/05/30 10:49:13;;;;;;;;;;;18.30;99.90;;;15.41;45.33;95039.13;10502671;28;2081;-72
2022/05/30 10:54:16;;;;;;;;;;;17.00;99.90;;;14.56;47.71;95044.25;10501550;28;2149;-72
2022/05/30 10:59:19;;;;;;;;;;;16.00;99.90;;;15.03;46.68;95038.22;10503244;28;2235;-73
2022/05/30 11:04:22;;;;;;;;;;;15.90;99.90;;;15.14;45.75;95034.88;10497283;28;2254;-73
2022/05/30 11:09:26;;;;;;;;;;;16.00;99.90;;;15.72;44.20;95040.84;10480261;28;2259;-73
2022/05/30 11:14:29;;;;;;;;;;;16.20;99.90;;;15.77;43.60;95048.78;10497782;28;2338;-73
2022/05/30 11:19:32;;;;;;;;;;;16.60;99.90;;;15.85;42.52;95050.69;10500598;28;2245;-74
2022/05/30 11:24:35;;;;;;;;;;;16.60;99.90;;;16.07;42.55;95046.13;10504362;28;2547;-74
2022/05/30 11:29:38;;;;;;;;;;;16.70;99.90;;;16.38;42.06;95056.66;10505440;28;2310;-73
2022/05/30 11:34:40;;;;;;;;;;;17.10;99.90;;;16.26;40.11;95056.56;10482815;28;2271;-74
2022/05/30 11:39:43;;;;;;;;;;;17.60;99.90;;;16.36;41.53;95067.06;10500153;28;2266;-74
2022/05/30 11:44:46;;;;;;;;;;;17.30;99.90;;;16.90;38.65;95068.00;10482497;28;2128;-75
2022/05/30 11:49:50;;;;;;;;;;;17.60;99.90;;;17.45;38.42;95049.81;10493652;28;2191;-74
2022/05/30 11:54:53;;;;;;;;;;;18.20;99.90;;;17.52;38.47;95050.06;10489810;28;2159;-74
2022/05/30 11:59:57;;;;;;;;;;;18.50;99.90;;;16.32;40.12;95063.41;10498856;28;2292;-72
2022/05/30 12:05:00;;;;;;;;;;;17.90;99.90;;;16.56;40.12;95069.00;10511332;28;2335;-73
2022/05/30 12:10:03;;;;;;;;;;;17.40;99.90;;;16.54;40.09;95075.88;10494953;28;2613;-74
2022/05/30 12:15:06;;;;;;;;;;;17.40;99.90;;;16.31;38.89;95072.66;10488691;28;2293;-75
2022/05/30 12:25:30;;;;;;;;;;;17.30;99.90;;;17.85;37.74;95068.31;10514552;28;2270;-74
2022/05/30 12:30:33;;;;;;;;;;;18.10;99.90;;;18.12;37.17;95067.66;10517731;28;2318;-75
2022/05/30 12:35:36;;;;;;;;;;;18.80;99.90;;;18.36;36.18;95070.41;10506139;28;2349;-75
2022/05/30 12:40:40;;;;;;;;;;;;;;;19.48;33.77;95069.09;10491805;28;2327;-74
2022/05/30 12:45:43;;;;;;;;;;;;;;;19.39;34.90;95070.00;10507991;28;2234;-74
2022/05/30 12:50:47;;;;;;;;;;;;;;;18.19;35.50;95076.03;10486940;28;2296;-74
2022/05/30 12:55:51;;;;;;;;;;;;;;;18.17;34.97;95078.31;10503242;28;2167;-75
2022/05/30 13:00:55;;;;;;;;;;;;;;;18.49;34.82;95075.84;10506212;28;2214;-73
2022/05/30 13:06:00;;;;;;;;;;;;;;;18.80;35.06;95064.38;10513345;28;2401;-73
2022/05/30 13:11:03;;;;;;;;;;;;;;;18.35;36.19;95084.34;10500848;28;2109;-73
2022/05/30 13:16:12;;;;;;;;;;;;;;;17.42;38.11;95096.66;10501131;28;2326;-73
2022/05/30 13:21:15;;;;;;;;;;;;;;;17.32;38.35;95102.53;10508946;28;2291;-74
2022/05/30 13:26:19;;;;;;;;;;;;;;;17.84;37.54;95111.00;10475592;28;2333;-73
2022/05/30 13:31:24;;;;;;;;;;;;;;;17.19;38.46;95112.53;10502933;28;2289;-74
2022/05/30 13:36:29;;;;;;;;;;;;;;;18.42;36.17;95098.19;10480845;28;2271;-74
2022/05/30 13:41:32;;;;;;;;;;;;;;;17.98;37.10;95103.34;10496432;28;2310;-74
2022/05/30 13:46:44;;;;;;;;;;;;;;;18.20;36.98;95104.88;10473515;28;2262;-75
2022/05/30 13:51:49;;;;;;;;;;;;;;;18.55;36.57;95104.41;10479832;28;2250;-75
2022/05/30 13:56:54;;;;;;;;;;;;;;;18.06;37.27;95112.53;10503104;28;2199;-74
2022/05/30 14:01:57;;;;;;;;;;;;;;;17.32;38.36;95113.38;10481630;28;2164;-74
2022/05/30 14:07:01;;;;;;;;;;;;;;;17.25;38.95;95117.44;10485743;28;2346;-74
2022/05/30 14:12:04;;;;;;;;;;;;;;;17.53;39.12;95119.59;10502515;28;2342;-74
2022/05/30 14:17:29;;;;;;;;;;;;;;;18.41;38.20;95117.56;10483611;28;2374;-75
2022/05/30 14:22:33;;;;;;;;;;;;;;;18.48;37.26;95125.97;10497876;28;2262;-76
2022/05/30 14:27:37;;;;;;;;;;;;;;;18.59;36.88;95122.47;10498379;28;2421;-76
2022/05/30 14:32:41;;;;;;;;;;;;;;;17.42;38.63;95126.53;10497599;28;2322;-75
2022/05/30 14:37:45;;;;;;;;;;;;;;;17.68;37.94;95132.53;10511017;28;2218;-75
2022/05/30 14:42:49;;;;;;;;;;;;;;;18.39;37.45;95125.28;10477935;28;2175;-76
2022/05/30 14:47:52;;;;;;;;;;;;;;;18.18;37.42;95119.91;10480579;28;2296;-76
2022/05/30 14:52:56;;;;;;;;;;;;;;;19.34;35.96;95122.06;10475078;28;2152;-75
2022/05/30 14:57:59;;;;;;;;;;;;;;;19.58;34.76;95120.41;10477696;28;2193;-76
2022/05/30 15:08:24;;;;;;;;;;;;;;;19.68;34.28;95126.16;10501691;28;2425;-78
2022/05/30 15:13:28;;;;;;;;;;;;;;;18.30;36.11;95153.38;10492618;28;2431;-73
2022/05/30 15:18:31;;;;;;;;;;;;;;;17.99;36.90;95144.91;10514184;28;2198;-73
2022/05/30 15:23:41;;;;;;;;;;;;;;;18.10;37.03;95144.16;10482081;28;2271;-73
2022/05/30 15:28:46;;;;;;;;;;;;;;;18.77;35.92;95142.13;10513539;28;2262;-72
2022/05/30 15:33:50;;;;;;;;;;;;;;;19.94;33.46;95136.59;10487226;28;2231;-73
2022/05/30 15:38:56;;;;;;;;;;;;;;;20.71;32.91;95132.75;10504567;28;2172;-76
2022/05/30 15:44:00;;;;;;;;;;;20.50;99.90;;;19.40;32.67;95137.03;10487187;28;2357;-75
2022/05/30 15:49:03;;;;;;;;;;;20.80;96.60;;;19.11;33.25;95132.66;10490744;28;2251;-75
2022/05/30 15:59:28;;;;;;;;;;;19.60;96.20;;;17.97;35.51;95137.09;10538688;28;2292;-75
2022/05/30 16:04:31;;;;;;;;;;;19.00;97.40;;;18.32;34.85;95137.53;10497922;28;2423;-75
2022/05/30 16:09:36;;;;;;;;;;;19.00;97.40;;;19.07;33.32;95139.13;10495013;28;2354;-75
2022/05/30 16:14:39;;;;;;;;;;;19.50;96.70;;;19.16;33.65;95137.09;10508245;28;2318;-75
2022/05/30 16:19:42;;;;;;;;;;;19.80;94.50;;;18.41;34.56;95136.63;10503060;28;2302;-74
2022/05/30 16:24:46;;;;;;;;;;;19.70;93.50;;;18.09;34.48;95136.34;10506055;28;2314;-74
2022/05/30 16:29:49;;;;;;;;;;;19.20;92.40;;;17.98;34.52;95133.25;10508512;28;2290;-75
2022/05/30 16:34:52;;;;;;;;;;;19.10;92.30;;;17.39;34.85;95138.09;10497306;28;2239;-75
2022/05/30 16:39:57;;;;;;;;;;;18.70;91.60;;;17.27;36.31;95141.53;10494251;28;2255;-75
2022/05/30 16:45:00;;;;;;;;;;;18.30;93.10;;;17.36;36.22;95149.59;10510496;28;2274;-75
2022/05/30 16:50:03;;;;;;;;;;;18.30;93.50;;;17.33;35.97;95147.56;10487460;28;2279;-75
2022/05/30 16:55:07;;;;;;;;;;;18.20;93.00;;;17.48;35.07;95147.75;10483449;28;2148;-75
2022/05/30 17:00:30;;;;;;;;;;;18.40;93.00;;;17.34;35.63;95151.88;10495962;28;2303;-75
2022/05/30 17:05:33;;;;;;;;;;;18.30;92.60;;;17.07;36.93;95153.97;10480690;28;2167;-75
2022/05/30 17:10:37;;;;;;;;;;;18.10;93.80;;;16.92;38.13;95159.97;10485413;28;2216;-75
2022/05/30 17:15:40;;;;;;;;;;;17.90;95.20;;;16.95;38.37;95167.47;10481174;28;2259;-74
2022/05/30 17:20:44;;;;;;;;;;;17.90;95.50;;;17.20;37.43;95171.94;10503622;28;2353;-74
2022/05/30 17:25:49;;;;;;;;;;;17.90;95.70;;;17.23;37.04;95171.25;10503876;28;2239;-74
2022/05/30 17:30:52;;;;;;;;;;;17.90;95.00;;;17.22;37.01;95164.25;10483095;28;2425;-74
2022/05/30 17:35:56;;;;;;;;;;;17.90;94.90;;;16.82;37.28;95179.38;10497269;28;2346;-75
2022/05/30 17:40:59;;;;;;;;;;;17.80;94.50;;;16.88;38.61;95178.84;10481258;28;2337;-75
2022/05/30 17:46:03;;;;;;;;;;;17.70;96.10;;;16.80;39.54;95182.41;10486011;28;2401;-75
2022/05/30 17:51:07;;;;;;;;;;;17.70;97.00;;;16.41;41.34;95194.34;10500612;28;2464;-75
2022/05/30 17:56:10;;;;;;;;;;;17.50;98.70;;;16.27;42.08;95197.25;10494196;28;2239;-75
2022/05/30 18:01:13;;;;;;;;;;;17.20;99.90;;;16.01;43.42;95204.66;10496103;28;2405;-75
2022/05/30 18:06:17;;;;;;;;;;;17.10;99.90;;;15.72;43.93;95205.34;10501095;28;2302;-74
2022/05/30 18:11:21;;;;;;;;;;;16.80;99.90;;;15.32;44.56;95211.63;10502921;28;2321;-74
2022/05/30 18:16:25;;;;;;;;;;;16.50;99.90;;;15.38;44.99;95215.78;10500076;28;2178;-75
2022/05/30 18:21:48;;;;;;;;;;;16.40;99.90;;;15.48;45.06;95214.69;10484358;28;2546;-74
2022/05/30 18:26:51;;;;;;;;;;;16.20;99.90;;;15.44;45.95;95218.34;10500032;28;2543;-74
2022/05/30 18:31:54;;;;;;;;;;;16.40;99.90;;;15.19;45.71;95218.00;10502302;28;2234;-74
2022/05/30 18:36:57;;;;;;;;;;;16.20;99.90;;;14.96;45.92;95236.28;10498568;28;2168;-74
2022/05/30 18:42:00;;;;;;;;;;;16.10;99.90;;;14.83;46.29;95231.78;10501838;28;2181;-74
2022/05/30 18:47:07;;;;;;;;;;;15.80;99.90;;;14.66;47.15;95229.00;10502385;28;2230;-75
2022/05/30 18:52:10;;;;;;;;;;;15.70;99.90;;;14.48;48.17;95237.03;10489559;28;2241;-74
2022/05/30 18:57:14;;;;;;;;;;;15.70;99.90;;;14.32;48.96;95244.72;10497813;28;2329;-74
2022/05/30 19:02:18;;;;;;;;;;;15.30;99.90;;;14.26;49.33;95247.88;10505313;28;2188;-75
2022/05/30 19:07:21;;;;;;;;;;;15.30;99.90;;;14.12;49.21;95239.81;10489937;28;2366;-74
2022/05/30 19:12:24;;;;;;;;;;;15.10;99.90;;;13.99;49.76;95252.28;10496526;28;2282;-74
2022/05/30 19:17:32;;;;;;;;;;;15.00;99.90;;;13.86;50.38;95261.25;10481671;28;2161;-74
2022/05/30 19:22:35;;;;;;;;;;;14.90;99.90;;;13.70;51.64;95268.13;10496510;28;2180;-75
2022/05/30 19:27:40;;;;;;;;;;;;;;;13.56;52.39;95280.88;10484203;28;2734;-76
2022/05/30 19:32:44;;;;;;;;;;;;;;;13.49;52.86;95271.31;10505600;28;2204;-75
2022/05/30 19:37:48;;;;;;;;;;;;;;;13.44;53.18;95287.59;10503781;28;2246;-75
2022/05/30 19:42:52;;;;;;;;;;;;;;;13.25;54.35;95292.34;10482096;28;2288;-75
2022/05/30 19:47:55;;;;;;;;;;;;;;;13.16;56.47;95296.81;10505014;28;2358;-75
2022/05/30 19:52:59;;;;;;;;;;;;;;;12.96;57.43;95301.50;10484669;28;2216;-74
2022/05/30 19:58:03;;;;;;;;;;;;;;;12.85;58.78;95297.44;10526963;28;2104;-74
2022/05/30 20:03:08;;;;;;;;;;;;;;;12.64;62.31;95301.59;10509568;28;2299;-75
2022/05/30 20:08:12;;;;;;;;;;;;;;;12.56;64.02;95307.66;10514798;28;2389;-75
2022/05/30 20:13:16;;;;;;;;;;;;;;;12.37;66.80;95305.03;10483222;28;2239;-75
2022/05/30 20:18:39;;;;;;;;;;;;;;;12.23;68.89;95313.09;10493551;28;2284;-75
2022/05/30 20:23:44;;;;;;;;;;;;;;;12.03;71.01;95321.50;10505529;28;2680;-74
2022/05/30 20:28:48;;;;;;;;;;;;;;;11.94;73.07;95334.03;10512428;28;2210;-75
2022/05/30 20:33:52;;;;;;;;;;;;;;;11.76;74.43;95328.31;10502613;28;2322;-74
2022/05/30 20:38:55;;;;;;;;;;;;;;;11.63;76.24;95332.53;10501881;28;2295;-75
2022/05/30 20:44:00;;;;;;;;;;;;;;;11.55;77.57;95333.19;10493801;28;2387;-75
2022/05/30 20:49:04;;;;;;;;;;;;;;;11.51;79.19;95336.75;10506723;28;2286;-74
2022/05/30 20:54:08;;;;;;;;;;;;;;;11.33;80.85;95336.44;10501437;28;2290;-74
2022/05/30 20:59:13;;;;;;;;;;;;;;;11.20;82.21;95326.41;10501790;28;2493;-74
2022/05/30 21:04:17;;;;;;;;;;;;;;;11.13;83.13;95331.28;10486404;28;2375;-75
2022/05/30 21:09:20;;;;;;;;;;;;;;;11.07;84.52;95329.78;10504459;28;2378;-74
2022/05/30 21:14:24;;;;;;;;;;;;;;;10.93;85.65;95328.84;10502058;28;2342;-74
2022/05/30 21:19:28;;;;;;;;;;;;;;;10.87;87.54;95328.09;10499179;28;2227;-73
2022/05/30 21:24:32;;;;;;;;;;;;;;;10.80;88.67;95323.06;10487651;28;2630;-74
2022/05/30 21:29:35;;;;;;;;;;;11.90;99.90;;;10.80;89.49;95325.75;10476693;28;2306;-74
2022/05/30 21:34:38;;;;;;;;;;;11.80;99.90;;;10.72;89.68;95326.38;10502843;28;2271;-75
2022/05/30 21:39:42;;;;;;;;;;;11.90;99.90;;;10.55;91.79;95332.19;10512406;28;2168;-74
2022/05/30 21:44:45;;;;;;;;;;;11.80;99.90;;;10.43;93.00;95337.16;10510922;28;2139;-74
2022/05/30 21:49:48;;;;;;;;;;;11.70;99.90;;;10.35;93.98;95331.59;10483204;28;2281;-74
2022/05/30 21:54:52;;;;;;;;;;;;;;;10.32;95.09;95343.72;10480835;28;2274;-75
2022/05/30 21:59:55;;;;;;;;;;;11.40;99.90;;;10.39;96.30;95333.44;10511820;28;2221;-75
2022/05/30 22:04:59;;;;;;;;;;;11.40;99.90;;;10.29;97.17;95331.63;10503187;28;2187;-75
2022/05/30 22:10:02;;;;;;;;;;;11.40;99.90;;;10.22;97.96;95328.44;10506259;28;2227;-75
2022/05/30 22:15:05;;;;;;;;;;;11.30;99.90;;;10.25;98.38;95340.56;10484440;28;2334;-74
2022/05/30 22:20:08;;;;;;;;;;;11.60;99.90;;;10.23;98.69;95335.44;10507440;28;2314;-74
2022/05/30 22:25:11;;;;;;;;;;;10.90;99.90;;;10.29;98.20;95337.00;10507125;28;2342;-74
2022/05/30 22:30:14;;;;;;;;;;;11.20;99.90;;;10.29;97.93;95328.94;10485092;28;2191;-74
2022/05/30 22:35:18;;;;;;;;;;;11.30;99.90;;;10.22;98.45;95333.81;10498835;28;2281;-75
2022/05/30 22:40:21;;;;;;;;;;;;;;;10.10;99.30;95336.06;10513026;28;2188;-74
2022/05/30 22:45:25;;;;;;;;;;;;;;;10.00;99.67;95336.16;10502717;28;2275;-74
2022/05/30 22:50:29;;;;;;;;;;;;;;;9.89;99.89;95340.78;10481976;28;2199;-74
2022/05/30 22:55:32;;;;;;;;;;;;;;;9.83;100.00;95325.78;10498522;28;2322;-75
2022/05/30 23:00:37;;;;;;;;;;;;;;;9.74;100.00;95330.97;10498499;28;2112;-74
2022/05/30 23:05:40;;;;;;;;;;;;;;;9.66;100.00;95320.81;10486571;28;2588;-75
2022/05/30 23:10:44;;;;;;;;;;;;;;;9.59;100.00;95331.03;10497990;28;2372;-73
2022/05/30 23:15:47;;;;;;;;;;;;;;;9.58;100.00;95332.13;10485819;28;2267;-73
2022/05/30 23:20:51;;;;;;;;;;;;;;;9.50;100.00;95327.34;10495742;28;2266;-74
2022/05/30 23:25:55;;;;;;;;;;;;;;;9.42;100.00;95322.59;10494570;28;2235;-74
2022/05/30 23:30:58;;;;;;;;;;;;;;;9.43;100.00;95319.63;10480866;28;2279;-74
2022/05/30 23:36:03;;;;;;;;;;;;;;;9.45;100.00;95313.97;10486773;28;2269;-74
2022/05/30 23:46:27;;;;;;;;;;;10.30;99.90;;;9.29;100.00;95315.94;10495311;28;2172;-73
2022/05/30 23:51:30;;;;;;;;;;;10.30;99.90;;;9.21;100.00;95319.19;10503885;28;2325;-74
2022/05/30 23:56:34;;;;;;;;;;;10.40;99.90;;;9.11;100.00;95303.97;10512197;28;2270;-74
